Alton, United Kingdom
Current Conditions -  °F | °C
As of 4:50 PM on Thursday 30 Oct 2014 (Local Time) from EGVO Reporting Station
Haze Haze  
Wind Chill: 59°   Ceiling: 25000
Heat Index: 59°   Visibility: 5mi
Dew Point: 57°   Wind: 9mph
Humidity: 94%   Direction: 150°SSE
Pressure: 30.06"   Gusts: NA
Location:  51.15°N, 0.97°W
Report Text: EGVO 301650Z 15008KT 8000 HZ FEW060 BKN250 15/14 Q1018 BLU BECMG 6000 WHT
Loading
Personal Weather Stations






























Interactive Weather Map
Tropical Storm Tracking
New forecast layout! Learn more

10-Day Weather Forecast

Advertisements
Track Severe Weather on mobile